Time;durP1;ratioP1;P1;durP2;ratioP2;P2;SDS_P1;SDS_P2;PMS_P1;PMS_P2;Temp;Humidity;BMP_temperature;BMP_pressure;BME280_temperature;BME280_humidity;BME280_pressure;Samples;Min_cycle;Max_cycle;Signal;HPM_P1;HPM_P2
2022/11/01 00:00:58;;;;;;;37.40;14.47;;;10.30;99.90;;;;;;4408592;28;659573;-72
2022/11/01 00:03:45;;;;;;;35.78;14.30;;;10.30;99.90;;;;;;4384884;28;658811;-71
2022/11/01 00:06:33;;;;;;;40.57;15.07;;;10.30;99.90;;;;;;4414441;28;659229;-72
2022/11/01 00:09:22;;;;;;;35.75;15.20;;;10.30;99.90;;;;;;4394441;28;658504;-71
2022/11/01 00:12:09;;;;;;;45.03;16.13;;;10.30;99.90;;;;;;4409558;28;658070;-72
2022/11/01 00:14:56;;;;;;;29.97;13.83;;;10.30;99.90;;;;;;4390835;28;658421;-72
2022/11/01 00:17:43;;;;;;;29.87;12.37;;;10.40;99.90;;;;;;4399575;28;659458;-72
2022/11/01 00:20:31;;;;;;;33.83;13.87;;;10.30;99.90;;;;;;4390533;28;659583;-72
2022/11/01 00:23:18;;;;;;;28.70;12.70;;;10.30;99.90;;;;;;4410739;28;659859;-72
2022/11/01 00:26:07;;;;;;;24.30;12.37;;;10.30;99.90;;;;;;4385603;28;660973;-71
2022/11/01 00:28:54;;;;;;;35.87;13.17;;;10.20;99.90;;;;;;4402619;28;659006;-72
2022/11/01 00:31:41;;;;;;;33.90;13.40;;;10.20;99.90;;;;;;4385030;28;658983;-71
2022/11/01 00:34:28;;;;;;;32.40;14.03;;;10.20;99.90;;;;;;4409406;28;658270;-72
2022/11/01 00:37:15;;;;;;;130.23;15.97;;;10.10;99.90;;;;;;4385696;28;658733;-72
2022/11/01 00:40:03;;;;;;;35.77;12.33;;;10.10;99.90;;;;;;4406830;28;659206;-72
2022/11/01 00:42:52;;;;;;;231.90;16.10;;;10.10;99.90;;;;;;4386477;28;658463;-71
2022/11/01 00:45:39;;;;;;;47.90;21.10;;;10.10;99.90;;;;;;4406226;28;659945;-72
2022/11/01 00:48:26;;;;;;;33.10;18.07;;;10.10;99.90;;;;;;4388127;28;659012;-72
2022/11/01 00:51:13;;;;;;;35.10;16.57;;;10.00;99.90;;;;;;4414754;28;659590;-73
2022/11/01 00:54:01;;;;;;;31.87;16.20;;;9.90;99.90;;;;;;4389663;28;658595;-72
2022/11/01 00:56:48;;;;;;;53.90;21.53;;;9.80;99.90;;;;;;4417886;28;658186;-72
2022/11/01 00:59:37;;;;;;;37.20;18.20;;;9.70;99.90;;;;;;4394167;28;658331;-71
2022/11/01 01:02:24;;;;;;;49.57;19.00;;;9.50;99.90;;;;;;4409960;28;657363;-72
2022/11/01 01:05:11;;;;;;;35.53;18.87;;;9.40;99.90;;;;;;4385971;28;658079;-72
2022/11/01 01:07:58;;;;;;;45.00;20.85;;;9.30;99.90;;;;;;4418226;28;658420;-72
2022/11/01 01:10:45;;;;;;;42.87;20.63;;;9.20;99.90;;;;;;4402737;28;659431;-72
2022/11/01 01:13:32;;;;;;;52.33;21.90;;;9.30;99.90;;;;;;4414820;28;658002;-72
2022/11/01 01:16:21;;;;;;;48.80;22.73;;;9.20;99.90;;;;;;4417290;28;657309;-71
2022/11/01 01:19:09;;;;;;;40.47;21.83;;;9.20;99.90;;;;;;4415849;28;658752;-73
2022/11/01 01:21:56;;;;;;;47.50;21.40;;;9.20;99.90;;;;;;4398236;28;658046;-72
2022/11/01 01:24:46;;;;;;;48.00;19.47;;;9.10;99.90;;;;;;4422512;28;658373;-72
2022/11/01 01:27:33;;;;;;;41.77;17.87;;;9.00;99.90;;;;;;4390511;28;658555;-72
2022/11/01 01:30:20;;;;;;;34.90;15.43;;;9.00;99.90;;;;;;4389226;28;658360;-72
2022/11/01 01:33:09;;;;;;;39.63;15.83;;;8.90;99.90;;;;;;4413635;28;658722;-72
2022/11/01 01:35:57;;;;;;;38.10;16.60;;;8.90;99.90;;;;;;4396839;28;657483;-72
2022/11/01 01:38:44;;;;;;;44.67;20.88;;;8.80;99.90;;;;;;4414999;28;657713;-72
2022/11/01 01:45:02;;;;;;;53.40;23.97;;;8.80;99.90;;;;;;4374320;28;659091;-71
2022/11/01 01:47:50;;;;;;;50.67;23.70;;;8.80;99.90;;;;;;4386120;28;658450;-72
2022/11/01 01:50:42;;;;;;;50.50;22.77;;;8.70;99.90;;;;;;4393680;28;658930;-72
2022/11/01 01:53:30;;;;;;;41.03;20.63;;;8.70;99.90;;;;;;4388656;28;657807;-72
2022/11/01 01:56:18;;;;;;;54.87;24.90;;;8.70;99.90;;;;;;4396744;28;657849;-72
2022/11/01 01:59:06;;;;;;;310.73;26.80;;;8.70;99.90;;;;;;4402849;28;657590;-70
2022/11/01 02:01:53;;;;;;;60.83;31.27;;;8.60;99.90;;;;;;4411702;28;659674;-71
2022/11/01 02:04:42;;;;;;;88.80;39.20;;;8.60;99.90;;;;;;4393861;28;658013;-72
2022/11/01 02:07:30;;;;;;;86.00;42.17;;;8.90;99.90;;;;;;4416740;28;658485;-72
2022/11/01 02:10:18;;;;;;;82.17;33.97;;;9.10;99.90;;;;;;4391734;28;657878;-72
2022/11/01 02:13:11;;;;;;;69.93;34.08;;;9.20;99.90;;;;;;4393959;28;657727;-70
2022/11/01 02:16:14;;;;;;;79.07;36.43;;;9.10;99.90;;;;;;4395307;28;658709;-72
2022/11/01 02:19:11;;;;;;;77.20;34.33;;;9.10;99.90;;;;;;4368145;28;658026;-72
2022/11/01 02:22:01;;;;;;;63.30;32.13;;;9.10;99.90;;;;;;4396616;28;659466;-72
2022/11/01 02:25:09;;;;;;;85.80;31.80;;;8.90;99.90;;;;;;4389893;28;658083;-73
2022/11/01 02:28:09;;;;;;;70.37;32.83;;;8.90;99.90;;;;;;4372596;28;659062;-73
2022/11/01 02:31:04;;;;;;;77.57;33.07;;;8.70;99.90;;;;;;4398321;28;657282;-72
2022/11/01 02:33:56;;;;;;;65.67;32.17;;;8.70;99.90;;;;;;4393140;28;657539;-72
2022/11/01 02:36:51;;;;;;;74.40;32.53;;;8.60;99.90;;;;;;4397211;28;658013;-73
2022/11/01 02:39:42;;;;;;;165.47;30.30;;;8.60;99.90;;;;;;4395525;28;657981;-72
2022/11/01 02:42:34;;;;;;;60.83;27.70;;;8.70;99.90;;;;;;4391091;28;659159;-73
2022/11/01 02:45:28;;;;;;;127.67;35.77;;;8.60;99.90;;;;;;4390977;28;657914;-72
2022/11/01 02:48:19;;;;;;;118.03;37.40;;;8.60;99.90;;;;;;4359747;28;659040;-72
2022/11/01 02:51:14;;;;;;;395.43;47.77;;;8.60;99.90;;;;;;4395351;28;658429;-72
2022/11/01 02:54:07;;;;;;;445.23;42.50;;;8.70;99.90;;;;;;4394787;28;659015;-73
2022/11/01 02:56:58;;;;;;;489.33;46.03;;;8.80;99.90;;;;;;4387746;28;658720;-72
2022/11/01 02:59:49;;;;;;;286.73;41.93;;;8.80;99.90;;;;;;4367349;28;659193;-71
2022/11/01 03:02:42;;;;;;;458.23;45.80;;;8.80;99.90;;;;;;4382803;28;658242;-72
2022/11/01 03:05:39;;;;;;;534.60;45.17;;;8.80;99.90;;;;;;4408874;28;658625;-71
2022/11/01 03:08:32;;;;;;;434.10;44.70;;;8.80;99.90;;;;;;4362684;28;658754;-72
2022/11/01 03:11:23;;;;;;;286.43;42.63;;;8.80;99.90;;;;;;4386970;28;658717;-73
2022/11/01 03:14:18;;;;;;;469.53;46.20;;;8.80;99.90;;;;;;4364982;28;659085;-72
2022/11/01 03:17:10;;;;;;;281.60;43.77;;;8.80;99.90;;;;;;4381334;28;658868;-71
2022/11/01 03:20:03;;;;;;;454.53;47.27;;;8.70;99.90;;;;;;4391945;28;659855;-72
2022/11/01 03:22:55;;;;;;;429.13;44.80;;;8.70;99.90;;;;;;4390184;28;659029;-71
2022/11/01 03:25:49;;;;;;;304.13;41.60;;;8.50;99.90;;;;;;4386804;28;659248;-72
2022/11/01 03:28:40;;;;;;;534.67;47.37;;;8.40;99.90;;;;;;4366674;28;659520;-73
2022/11/01 03:31:31;;;;;;;487.63;48.50;;;8.20;99.90;;;;;;4388629;28;659440;-71
2022/11/01 03:34:21;;;;;;;539.83;45.57;;;8.10;99.90;;;;;;4381229;28;658793;-72
2022/11/01 03:37:12;;;;;;;696.50;50.77;;;8.20;99.90;;;;;;4382327;28;658865;-72
2022/11/01 03:40:03;;;;;;;470.53;35.77;;;8.20;99.90;;;;;;4384772;28;659007;-72
2022/11/01 03:42:55;;;;;;;647.33;41.63;;;8.10;99.90;;;;;;4366027;28;659268;-72
2022/11/01 03:45:46;;;;;;;308.83;31.80;;;7.90;99.90;;;;;;4389563;28;659088;-72
2022/11/01 03:48:41;;;;;;;463.23;35.93;;;7.70;99.90;;;;;;4383934;28;659417;-72
2022/11/01 03:51:31;;;;;;;314.63;34.37;;;7.50;99.90;;;;;;4383882;28;658911;-72
2022/11/01 03:54:21;;;;;;;619.10;40.87;;;7.20;99.90;;;;;;4382989;28;659054;-71
2022/11/01 03:57:12;;;;;;;317.27;29.23;;;7.10;99.90;;;;;;4386392;28;659218;-72
2022/11/01 04:00:05;;;;;;;183.30;26.67;;;7.00;99.90;;;;;;4403540;28;659732;-70
2022/11/01 04:02:56;;;;;;;330.57;27.07;;;6.90;99.90;;;;;;4380758;28;661143;-72
2022/11/01 04:05:50;;;;;;;307.53;25.93;;;6.80;99.90;;;;;;4384075;28;659578;-72
2022/11/01 04:08:40;;;;;;;143.30;22.33;;;6.70;99.90;;;;;;4389792;28;660214;-72
2022/11/01 04:11:31;;;;;;;133.00;20.50;;;6.80;99.90;;;;;;4382631;28;659506;-72
2022/11/01 04:20:37;;;;;;;95.57;20.70;;;6.70;99.90;;;;;;4391017;28;658291;-72
2022/11/01 04:23:27;;;;;;;111.78;21.38;;;6.60;99.90;;;;;;4376401;28;658326;-72
2022/11/01 04:26:17;;;;;;;124.23;19.13;;;6.70;99.90;;;;;;4380456;28;658242;-72
2022/11/01 04:29:08;;;;;;;83.77;18.57;;;6.80;99.90;;;;;;4377774;28;658344;-70
2022/11/01 04:31:59;;;;;;;78.53;17.60;;;6.70;99.90;;;;;;4398365;28;657379;-72
2022/11/01 04:34:52;;;;;;;122.33;19.43;;;6.80;99.90;;;;;;4383074;28;658959;-72
2022/11/01 04:37:43;;;;;;;69.87;18.30;;;6.90;99.90;;;;;;4382561;28;658336;-72
2022/11/01 04:40:34;;;;;;;69.87;16.63;;;6.90;99.90;;;;;;4370809;28;657783;-72
2022/11/01 04:43:24;;;;;;;86.50;17.57;;;6.90;99.90;;;;;;4387302;28;658248;-72
2022/11/01 04:46:15;;;;;;;107.10;18.37;;;6.80;99.90;;;;;;4387622;28;657474;-71
2022/11/01 04:49:05;;;;;;;46.53;17.53;;;6.70;99.90;;;;;;4383936;28;659752;-72
2022/11/01 04:51:58;;;;;;;89.30;18.77;;;6.70;99.90;;;;;;4390083;28;657914;-72
2022/11/01 04:54:48;;;;;;;139.70;17.97;;;6.70;99.90;;;;;;4367414;28;657677;-71
2022/11/01 04:57:41;;;;;;;77.60;17.13;;;6.70;99.90;;;;;;4392278;28;658584;-72
2022/11/01 05:00:33;;;;;;;98.13;17.38;;;6.70;99.90;;;;;;4388383;28;659759;-72
2022/11/01 05:03:24;;;;;;;99.30;16.97;;;6.80;99.90;;;;;;4369786;28;658185;-71
2022/11/01 05:06:14;;;;;;;73.17;17.67;;;6.80;99.90;;;;;;4388059;28;657476;-72
2022/11/01 05:09:07;;;;;;;72.23;17.37;;;6.90;99.90;;;;;;4396894;28;657547;-72
2022/11/01 05:11:57;;;;;;;68.10;18.50;;;7.00;99.90;;;;;;4390364;28;657335;-72
2022/11/01 05:14:48;;;;;;;77.30;17.47;;;7.10;99.90;;;;;;4385008;28;657832;-72
2022/11/01 05:17:42;;;;;;;73.93;17.10;;;7.20;99.90;;;;;;4365138;28;657462;-72
2022/11/01 05:20:32;;;;;;;47.33;16.63;;;7.20;99.90;;;;;;4384056;28;657669;-72
2022/11/01 05:23:23;;;;;;;69.23;16.73;;;7.20;99.90;;;;;;4386319;28;657318;-70
2022/11/01 05:26:12;;;;;;;63.43;17.30;;;7.30;99.90;;;;;;4390559;28;657612;-71
2022/11/01 05:29:00;;;;;;;58.10;16.60;;;7.40;99.90;;;;;;4409808;28;657394;-71
2022/11/01 05:31:49;;;;;;;43.70;16.63;;;7.40;99.90;;;;;;4418772;28;658001;-72
2022/11/01 05:34:39;;;;;;;50.67;15.87;;;7.40;99.90;;;;;;4387694;28;659331;-72
2022/11/01 05:37:26;;;;;;;64.30;16.10;;;7.40;99.90;;;;;;4393671;28;657534;-72
2022/11/01 05:40:16;;;;;;;59.50;17.23;;;7.50;99.90;;;;;;4408503;28;657752;-72
2022/11/01 05:43:06;;;;;;;49.10;16.27;;;7.40;99.90;;;;;;4394364;28;659004;-73
2022/11/01 05:45:53;;;;;;;146.13;18.27;;;7.50;99.90;;;;;;4392837;28;657858;-72
2022/11/01 05:48:41;;;;;;;97.43;17.40;;;7.50;99.90;;;;;;4395198;28;658917;-70
2022/11/01 05:51:30;;;;;;;149.40;17.90;;;7.60;99.90;;;;;;4413729;28;658112;-72
2022/11/01 05:54:18;;;;;;;144.20;16.57;;;7.70;99.90;;;;;;4383880;28;659060;-72
2022/11/01 05:57:05;;;;;;;125.43;17.50;;;7.70;99.90;;;;;;4408232;28;659203;-71
2022/11/01 05:59:55;;;;;;;134.73;17.90;;;7.70;99.90;;;;;;4411069;28;659732;-73
2022/11/01 06:02:42;;;;;;;193.77;19.30;;;7.80;99.90;;;;;;4385594;28;659223;-72
2022/11/01 06:05:29;;;;;;;206.80;19.27;;;7.80;99.90;;;;;;4407559;28;658510;-72
2022/11/01 06:08:16;;;;;;;330.25;22.80;;;7.90;99.90;;;;;;4392608;28;658831;-72
2022/11/01 06:11:04;;;;;;;239.70;19.63;;;8.10;99.90;;;;;;4416496;28;657915;-72
2022/11/01 06:13:54;;;;;;;308.27;22.17;;;8.10;99.90;;;;;;4393406;28;660295;-72
2022/11/01 06:16:44;;;;;;;495.73;25.67;;;8.20;99.90;;;;;;4396899;28;658607;-72
2022/11/01 06:19:31;;;;;;;399.50;24.73;;;8.30;99.90;;;;;;4395035;28;658370;-72
2022/11/01 06:22:18;;;;;;;417.40;25.70;;;8.30;99.90;;;;;;4416095;28;659317;-72
2022/11/01 06:25:07;;;;;;;364.90;24.27;;;8.40;99.90;;;;;;4390469;28;659093;-72
2022/11/01 06:27:54;;;;;;;518.00;27.20;;;8.40;99.90;;;;;;4418356;28;658978;-72
2022/11/01 06:30:42;;;;;;;383.90;25.67;;;8.50;99.90;;;;;;4396489;28;658421;-72
2022/11/01 06:33:32;;;;;;;326.33;25.07;;;8.60;99.90;;;;;;4408808;28;658858;-71
2022/11/01 06:36:19;;;;;;;374.70;27.70;;;8.60;99.90;;;;;;4410977;28;659411;-73
2022/11/01 06:39:06;;;;;;;367.80;30.47;;;8.60;99.90;;;;;;4383172;28;658768;-72
2022/11/01 06:41:53;;;;;;;458.25;32.30;;;8.60;99.90;;;;;;4395190;28;659658;-73
2022/11/01 06:44:40;;;;;;;320.57;28.30;;;8.70;99.90;;;;;;4379026;28;658789;-71
2022/11/01 06:47:27;;;;;;;327.87;29.33;;;8.70;99.90;;;;;;4393409;28;659928;-71
2022/11/01 06:50:17;;;;;;;145.67;27.10;;;8.80;99.90;;;;;;4389841;28;658481;-71
2022/11/01 06:53:04;;;;;;;150.50;27.47;;;8.90;99.90;;;;;;4397528;28;658838;-73
2022/11/01 06:55:51;;;;;;;130.40;27.97;;;8.90;99.90;;;;;;4374354;28;658680;-73
2022/11/01 06:58:38;;;;;;;135.90;27.33;;;9.10;99.90;;;;;;4399416;28;658568;-71
2022/11/01 07:01:25;;;;;;;92.70;27.33;;;9.00;99.90;;;;;;4375841;28;658740;-72
2022/11/01 07:04:12;;;;;;;93.30;27.27;;;9.30;99.90;;;;;;4399398;28;659255;-73
2022/11/01 07:07:01;;;;;;;90.77;27.13;;;9.20;99.90;;;;;;4396070;28;658029;-70
2022/11/01 07:09:49;;;;;;;102.40;27.33;;;9.30;99.90;;;;;;4399525;28;658894;-73
2022/11/01 07:12:36;;;;;;;87.67;25.83;;;9.30;99.90;;;;;;4378456;28;658420;-72
2022/11/01 07:15:23;;;;;;;90.32;28.98;;;9.20;99.90;;;;;;4401448;28;658238;-73
2022/11/01 07:18:10;;;;;;;91.80;30.00;;;9.40;99.90;;;;;;4371754;28;658463;-71
2022/11/01 07:20:57;;;;;;;88.60;29.33;;;9.40;99.90;;;;;;4408216;28;657657;-73
2022/11/01 07:23:46;;;;;;;99.20;30.77;;;9.40;99.90;;;;;;4392585;28;657427;-73
2022/11/01 07:26:33;;;;;;;78.63;28.70;;;9.50;99.90;;;;;;4366419;28;658542;-74
2022/11/01 07:29:20;;;;;;;89.73;30.10;;;9.60;99.90;;;;;;4375401;28;658488;-71
2022/11/01 07:32:07;;;;;;;95.28;31.00;;;9.60;99.90;;;;;;4392988;28;658352;-73
2022/11/01 07:34:54;;;;;;;86.93;31.97;;;9.80;99.90;;;;;;4392309;28;659039;-73
2022/11/01 07:37:41;;;;;;;79.83;29.50;;;9.90;99.90;;;;;;4375781;28;658052;-72
2022/11/01 07:40:30;;;;;;;76.63;28.70;;;9.90;99.90;;;;;;4383374;28;657776;-72
2022/11/01 07:43:17;;;;;;;60.07;23.17;;;10.00;99.90;;;;;;4371488;28;658524;-71
2022/11/01 07:46:05;;;;;;;66.17;28.03;;;10.20;99.90;;;;;;4377625;28;658717;-73
2022/11/01 07:48:53;;;;;;;72.07;28.17;;;10.10;99.90;;;;;;4362302;28;659776;-71
2022/11/01 07:51:40;;;;;;;62.60;26.73;;;10.20;99.90;;;;;;4387736;28;659049;-71
2022/11/01 07:54:27;;;;;;;68.43;27.77;;;10.00;99.90;;;;;;4390626;28;659650;-72
2022/11/01 07:57:16;;;;;;;49.37;21.67;;;10.20;99.90;;;;;;4379345;28;658609;-73
2022/11/01 08:00:03;;;;;;;58.50;26.10;;;10.20;99.90;;;;;;4359411;28;659237;-72
2022/11/01 08:02:50;;;;;;;54.47;23.80;;;10.00;99.90;;;;;;4359716;28;658901;-72
2022/11/01 08:05:38;;;;;;;49.10;23.03;;;10.10;99.90;;;;;;4379278;28;659228;-72
2022/11/01 08:08:25;;;;;;;45.50;23.80;;;10.20;99.90;;;;;;4364880;28;658639;-71
2022/11/01 08:11:12;;;;;;;43.33;23.27;;;10.30;99.90;;;;;;4383484;28;660124;-73
2022/11/01 08:14:01;;;;;;;45.23;21.20;;;10.40;99.90;;;;;;4382317;28;659164;-72
2022/11/01 08:16:48;;;;;;;42.10;22.67;;;10.60;99.90;;;;;;4356610;28;660007;-72
2022/11/01 08:19:35;;;;;;;49.60;22.00;;;10.60;99.90;;;;;;4356080;28;658563;-72
2022/11/01 08:22:22;;;;;;;41.87;22.20;;;10.60;99.90;;;;;;4378577;28;659295;-71
2022/11/01 08:25:10;;;;;;;37.57;20.90;;;10.70;99.90;;;;;;4368402;28;658704;-71
2022/11/01 08:28:01;;;;;;;39.17;21.20;;;10.80;99.90;;;;;;4383241;28;660944;-72
2022/11/01 08:30:49;;;;;;;41.40;19.90;;;10.90;99.90;;;;;;4358135;28;659070;-72
2022/11/01 08:33:37;;;;;;;39.00;21.40;;;10.90;99.90;;;;;;4366585;28;659223;-72
2022/11/01 08:36:24;;;;;;;43.93;20.43;;;10.80;99.90;;;;;;4377925;28;658830;-72
2022/11/01 08:39:11;;;;;;;39.28;20.35;;;10.80;99.90;;;;;;4362053;28;659062;-72
2022/11/01 08:41:59;;;;;;;43.83;21.13;;;11.00;99.90;;;;;;4385708;28;659275;-72
2022/11/01 08:44:46;;;;;;;33.67;17.17;;;11.00;99.90;;;;;;4362589;28;658768;-72
2022/11/01 08:47:35;;;;;;;33.67;17.60;;;11.30;99.90;;;;;;4387325;28;659172;-72
2022/11/01 08:50:22;;;;;;;37.10;19.37;;;11.40;99.90;;;;;;4362532;28;660095;-72
2022/11/01 08:53:10;;;;;;;30.87;16.70;;;11.80;99.90;;;;;;4387793;28;658271;-72
2022/11/01 08:55:57;;;;;;;30.80;17.63;;;12.00;99.90;;;;;;4367546;28;659413;-72
2022/11/01 08:58:45;;;;;;;26.90;16.13;;;12.20;99.90;;;;;;4385396;28;658951;-71
2022/11/01 09:01:32;;;;;;;23.00;9.57;;;12.10;99.90;;;;;;4392793;28;658122;-71
2022/11/01 09:04:21;;;;;;;29.47;16.80;;;11.90;99.90;;;;;;4384113;28;657857;-70
2022/11/01 09:07:09;;;;;;;33.97;16.27;;;12.00;99.90;;;;;;4386881;28;659234;-70
2022/11/01 09:09:56;;;;;;;30.00;15.63;;;12.20;99.90;;;;;;4354726;28;658799;-71
2022/11/01 09:12:43;;;;;;;28.50;14.80;;;12.50;99.90;;;;;;4387539;28;659507;-71
2022/11/01 09:15:30;;;;;;;29.33;15.73;;;12.60;99.90;;;;;;4365713;28;658481;-70
2022/11/01 09:18:18;;;;;;;29.90;13.97;;;12.00;99.90;;;;;;4389455;28;660086;-71
2022/11/01 09:21:07;;;;;;;28.77;15.40;;;12.00;99.90;;;;;;4380647;28;659256;-70
2022/11/01 09:23:54;;;;;;;30.40;15.37;;;11.80;99.90;;;;;;4390886;28;658530;-72
2022/11/01 09:26:41;;;;;;;33.10;16.80;;;12.10;99.90;;;;;;4366251;28;658572;-71
2022/11/01 09:29:28;;;;;;;28.92;14.32;;;13.00;99.90;;;;;;4392073;28;659824;-71
2022/11/01 09:32:15;;;;;;;22.47;13.27;;;13.50;99.90;;;;;;4365233;28;658843;-71
2022/11/01 09:35:04;;;;;;;24.00;13.80;;;13.60;99.90;;;;;;4394643;28;659671;-71
2022/11/01 09:37:58;;;;;;;23.93;13.77;;;14.20;99.90;;;;;;4366553;28;659234;-72
2022/11/01 09:40:46;;;;;;;21.97;11.87;;;14.70;99.90;;;;;;4348654;28;658214;-71
2022/11/01 09:43:35;;;;;;;21.87;12.13;;;15.40;99.90;;;;;;4387166;28;660156;-72
2022/11/01 09:46:24;;;;;;;20.20;10.97;;;15.70;99.90;;;;;;4367108;28;660231;-72
2022/11/01 09:49:12;;;;;;;26.53;12.37;;;15.90;99.90;;;;;;4369101;28;658880;-70
2022/11/01 09:51:59;;;;;;;22.23;11.50;;;15.70;99.90;;;;;;4394414;28;659626;-71
2022/11/01 09:54:47;;;;;;;21.67;10.85;;;14.80;99.90;;;;;;4367247;28;658493;-71
2022/11/01 09:57:35;;;;;;;24.40;10.90;;;14.20;99.90;;;;;;4388076;28;659085;-71
2022/11/01 10:00:22;;;;;;;22.42;10.57;;;14.60;99.90;;;;;;4368712;28;658940;-71
2022/11/01 10:03:19;;;;;;;20.27;10.30;;;14.50;99.90;;;;;;4384824;28;658235;-71
2022/11/01 10:06:10;;;;;;;20.90;8.97;;;14.20;99.90;;;;;;4368029;28;659648;-71
2022/11/01 10:09:02;;;;;;;11.63;4.73;;;14.10;99.90;;;;;;4366848;28;658550;-70
2022/11/01 10:12:01;;;;;;;19.40;8.70;;;14.20;99.90;;;;;;4360598;28;657580;-70
2022/11/01 10:14:54;;;;;;;18.23;7.90;;;14.60;99.90;;;;;;4368066;28;658361;-71
2022/11/01 10:17:49;;;;;;;14.03;6.50;;;14.70;99.90;;;;;;4345843;28;658543;-71
2022/11/01 10:20:37;;;;;;;18.27;6.97;;;14.90;99.90;;;;;;4366751;28;657638;-71
2022/11/01 10:23:31;;;;;;;18.50;8.43;;;15.20;99.90;;;;;;4385428;28;657569;-72
2022/11/01 10:26:21;;;;;;;16.92;8.40;;;15.00;99.90;;;;;;4364159;28;658104;-71
2022/11/01 10:29:13;;;;;;;18.00;7.33;;;15.10;99.90;;;;;;4368742;28;657922;-71
2022/11/01 10:32:00;;;;;;;17.70;7.27;;;15.80;99.90;;;;;;4347766;28;657441;-70
2022/11/01 10:34:47;;;;;;;17.07;8.27;;;16.30;99.90;;;;;;4391201;28;659284;-72
2022/11/01 10:37:37;;;;;;;18.27;8.20;;;15.90;99.90;;;;;;4387398;28;657512;-71
2022/11/01 10:40:27;;;;;;;12.17;7.27;;;16.60;99.90;;;;;;4413049;28;657486;-71
2022/11/01 10:43:15;;;;;;;15.33;6.67;;;16.80;99.90;;;;;;4388916;28;657739;-73
2022/11/01 10:46:06;;;;;;;13.60;6.40;;;16.80;99.90;;;;;;4385699;28;658185;-70
2022/11/01 10:48:54;;;;;;;16.83;7.60;;;16.60;99.90;;;;;;4379378;28;659689;-70
2022/11/01 10:51:41;;;;;;;16.97;7.60;;;16.70;99.90;;;;;;4388528;28;657314;-70
2022/11/01 10:54:29;;;;;;;17.83;7.70;;;16.00;99.90;;;;;;4401878;28;659239;-71
2022/11/01 10:57:21;;;;;;;14.73;7.40;;;16.80;99.90;;;;;;4388421;28;658141;-70
2022/11/01 11:00:14;;;;;;;14.47;5.77;;;17.30;99.90;;;;;;4383432;28;657662;-71
2022/11/01 11:03:13;;;;;;;13.20;6.07;;;17.30;99.90;;;;;;4362453;28;657969;-71
2022/11/01 11:06:01;;;;;;;10.27;5.40;;;17.00;99.90;;;;;;4365624;28;657699;-69
2022/11/01 11:08:50;;;;;;;10.30;5.20;;;16.80;99.90;;;;;;4408548;28;658675;-71
2022/11/01 11:11:40;;;;;;;13.70;5.77;;;16.90;99.90;;;;;;4386390;28;658952;-71
2022/11/01 11:14:27;;;;;;;10.30;4.63;;;17.00;99.90;;;;;;4387817;28;658134;-70
2022/11/01 11:17:18;;;;;;;14.77;6.27;;;17.60;99.90;;;;;;4399874;28;657363;-71
2022/11/01 11:20:09;;;;;;;16.10;6.17;;;17.60;99.90;;;;;;4359650;28;658291;-70
2022/11/01 11:22:56;;;;;;;15.30;6.13;;;17.50;99.90;;;;;;4389555;28;658827;-71
2022/11/01 11:25:44;;;;;;;15.00;5.32;;;17.40;99.90;;;;;;4402197;28;658142;-72
2022/11/01 11:28:32;;;;;;;17.40;5.37;;;17.30;99.90;;;;;;4389366;28;657825;-71
2022/11/01 11:31:23;;;;;;;14.27;5.90;;;17.60;99.90;;;;;;4404106;28;657500;-71
2022/11/01 11:34:23;;;;;;;12.13;5.67;;;18.00;99.90;;;;;;4364020;28;657860;-71
2022/11/01 11:37:18;;;;;;;8.97;4.90;;;18.50;99.90;;;;;;4363383;28;658088;-70
2022/11/01 11:40:18;;;;;;;11.83;6.20;;;17.80;99.90;;;;;;4362178;28;656863;-70
2022/11/01 11:43:21;;;;;;;10.93;6.10;;;17.90;99.90;;;;;;4388117;28;657591;-70
2022/11/01 11:46:14;;;;;;;9.57;4.23;;;18.40;99.90;;;;;;4383938;28;658323;-71
2022/11/01 11:49:05;;;;;;;9.83;5.83;;;18.30;99.90;;;;;;4388046;28;657597;-71
2022/11/01 11:51:53;;;;;;;11.82;5.70;;;17.90;99.90;;;;;;4380127;28;657600;-71
2022/11/01 11:54:42;;;;;;;12.40;5.77;;;17.70;99.90;;;;;;4399077;28;657732;-71
2022/11/01 11:57:29;;;;;;;12.73;5.17;;;18.40;99.90;;;;;;4405513;28;657838;-71
2022/11/01 12:00:22;;;;;;;17.03;5.97;;;18.60;99.90;;;;;;4382763;28;657959;-71
2022/11/01 12:03:11;;;;;;;10.63;4.73;;;18.20;99.90;;;;;;4383688;28;657590;-72
2022/11/01 12:06:00;;;;;;;11.23;5.37;;;18.20;99.90;;;;;;4380777;28;658639;-71
2022/11/01 12:08:48;;;;;;;9.00;4.93;;;18.90;99.20;;;;;;4379133;28;657760;-71
2022/11/01 12:11:40;;;;;;;13.20;5.80;;;18.80;98.40;;;;;;4389525;28;656374;-70
2022/11/01 12:14:27;;;;;;;10.93;5.07;;;19.40;96.10;;;;;;4383589;28;658380;-71
2022/11/01 12:17:32;;;;;;;10.60;5.70;;;19.50;94.40;;;;;;4405799;28;658170;-70
2022/11/01 12:20:19;;;;;;;14.80;4.97;;;18.30;95.60;;;;;;4382701;28;657480;-71
2022/11/01 12:23:11;;;;;;;12.77;5.53;;;18.60;96.80;;;;;;4385041;28;657779;-71
2022/11/01 12:25:58;;;;;;;11.93;5.73;;;18.20;97.30;;;;;;4377590;28;658375;-71
2022/11/01 12:28:48;;;;;;;10.60;5.20;;;18.30;98.20;;;;;;4387015;28;657999;-69
2022/11/01 12:31:35;;;;;;;14.47;5.47;;;18.70;97.40;;;;;;4384660;28;657713;-70
2022/11/01 12:34:25;;;;;;;10.50;5.43;;;18.30;98.50;;;;;;4398221;28;659247;-70
2022/11/01 12:37:15;;;;;;;12.10;6.00;;;19.50;94.90;;;;;;4384306;28;657631;-70
2022/11/01 12:40:05;;;;;;;10.77;5.97;;;18.20;95.70;;;;;;4384757;28;658178;-70
2022/11/01 12:43:00;;;;;;;14.03;4.93;;;17.70;98.10;;;;;;4380482;28;659106;-69
2022/11/01 12:45:50;;;;;;;15.50;6.50;;;17.10;99.90;;;;;;4359413;28;658140;-70
2022/11/01 12:48:39;;;;;;;10.33;5.43;;;16.60;99.90;;;;;;4379071;28;658659;-70
2022/11/01 12:51:29;;;;;;;9.67;5.90;;;16.60;99.90;;;;;;4381796;28;659013;-69
2022/11/01 12:54:18;;;;;;;12.17;6.30;;;16.50;99.90;;;;;;4390470;28;656758;-70
2022/11/01 12:57:12;;;;;;;10.63;5.50;;;16.10;99.90;;;;;;4392557;28;657431;-70
2022/11/01 12:59:59;;;;;;;10.43;6.03;;;15.60;99.90;;;;;;4380906;28;657394;-70
2022/11/01 13:02:59;;;;;;;12.93;6.90;;;15.30;99.90;;;;;;4391740;28;657948;-70
2022/11/01 13:05:49;;;;;;;10.10;5.70;;;15.30;99.90;;;;;;4392156;28;657821;-70
2022/11/01 13:08:40;;;;;;;22.13;7.60;;;15.40;99.90;;;;;;4387176;28;658204;-70
2022/11/01 13:11:29;;;;;;;15.37;6.83;;;15.20;99.90;;;;;;4389449;28;658504;-70
2022/11/01 13:14:30;;;;;;;9.67;5.53;;;15.00;99.90;;;;;;4392588;28;657448;-70
2022/11/01 13:17:21;;;;;;;13.40;6.80;;;15.30;99.90;;;;;;4392928;28;656868;-70
2022/11/01 13:20:30;;;;;;;11.17;6.43;;;15.50;99.90;;;;;;4382933;28;658989;-70
2022/11/01 13:23:22;;;;;;;14.37;7.10;;;15.20;99.90;;;;;;4386659;28;657204;-70
2022/11/01 13:26:11;;;;;;;16.07;7.50;;;14.90;99.90;;;;;;4387677;28;658399;-70
2022/11/01 13:29:06;;;;;;;12.80;6.60;;;14.80;99.90;;;;;;4385741;28;658381;-70
2022/11/01 13:32:00;;;;;;;14.23;6.90;;;15.10;99.90;;;;;;4388205;28;658516;-70
2022/11/01 13:34:53;;;;;;;13.63;4.63;;;15.10;99.90;;;;;;4365198;28;658878;-69
2022/11/01 13:37:44;;;;;;;12.93;6.77;;;15.50;99.90;;;;;;4370935;28;657707;-69
2022/11/01 13:40:32;;;;;;;20.50;7.13;;;16.40;99.90;;;;;;4387480;28;657706;-69
2022/11/01 13:43:20;;;;;;;14.23;6.33;;;16.50;99.90;;;;;;4409116;28;657287;-70
2022/11/01 13:46:31;;;;;;;20.85;6.72;;;17.10;99.90;;;;;;4376143;28;659976;-68
2022/11/01 13:49:55;;;;;;;14.63;6.83;;;16.30;99.90;;;;;;4385853;28;658379;-69
2022/11/01 13:52:45;;;;;;;15.40;6.30;;;17.40;99.90;;;;;;4391380;28;657811;-68
2022/11/01 13:55:35;;;;;;;13.10;5.83;;;16.60;99.90;;;;;;4381928;28;659908;-69
2022/11/01 13:58:23;;;;;;;15.63;7.00;;;15.90;99.90;;;;;;4383424;28;657853;-69
2022/11/01 14:01:28;;;;;;;16.88;6.78;;;15.80;99.90;;;;;;4391410;28;657902;-70
2022/11/01 14:04:38;;;;;;;19.13;7.00;;;16.20;99.90;;;;;;4391540;28;657524;-70
2022/11/01 14:07:25;;;;;;;14.13;6.53;;;15.80;99.90;;;;;;4371939;28;657663;-69
2022/11/01 14:10:46;;;;;;;14.23;6.80;;;15.50;99.90;;;;;;4412945;28;658101;-69
2022/11/01 14:13:36;;;;;;;16.77;7.50;;;15.30;99.90;;;;;;4377321;28;657945;-69
2022/11/01 14:16:23;;;;;;;13.83;7.57;;;14.70;99.90;;;;;;4381905;28;657859;-69
2022/11/01 14:19:13;;;;;;;14.77;7.53;;;14.20;99.90;;;;;;4385362;28;657802;-70
2022/11/01 14:22:01;;;;;;;14.40;7.40;;;14.40;99.90;;;;;;4390981;28;657684;-69
2022/11/01 14:24:52;;;;;;;18.67;7.63;;;14.30;99.90;;;;;;4409249;28;658763;-69
2022/11/01 14:27:43;;;;;;;13.63;7.03;;;14.60;99.90;;;;;;4387205;28;658186;-70